createdAt,value
2019-05-29T00:01:30.005Z,73.08
2019-05-29T00:03:58.918Z,73.57
2019-05-29T00:06:27.784Z,74.13
2019-05-29T00:08:56.694Z,73.03
2019-05-29T00:11:25.603Z,74.19
2019-05-29T00:13:54.525Z,73.76
2019-05-29T00:16:23.412Z,73.57
2019-05-29T00:18:52.315Z,73.95
2019-05-29T00:21:21.248Z,73.68
2019-05-29T00:23:50.151Z,74.10
2019-05-29T00:26:19.064Z,74.05
2019-05-29T00:28:47.943Z,74.54
2019-05-29T00:31:18.137Z,74.20
2019-05-29T00:33:45.748Z,74.24
2019-05-29T00:36:14.657Z,74.40
2019-05-29T00:38:43.534Z,74.20
2019-05-29T00:41:12.969Z,74.12
2019-05-29T00:43:41.339Z,74.38
2019-05-29T00:46:11.331Z,74.26
2019-05-29T00:48:39.121Z,74.35
2019-05-29T00:51:08.927Z,74.27
2019-05-29T00:53:36.971Z,74.31
2019-05-29T00:56:05.911Z,74.57
2019-05-29T00:58:34.805Z,74.22
2019-05-29T01:01:03.717Z,74.21
2019-05-29T01:03:32.638Z,73.98
2019-05-29T01:06:01.543Z,72.97
2019-05-29T01:08:30.420Z,74.23
2019-05-29T01:10:59.324Z,74.35
2019-05-29T01:13:28.222Z,74.43
2019-05-29T01:15:57.133Z,74.11
2019-05-29T01:18:26.010Z,73.84
2019-05-29T01:20:54.910Z,74.08
2019-05-29T01:23:23.818Z,73.97
2019-05-29T01:25:52.704Z,73.68
2019-05-29T01:28:21.590Z,73.33
2019-05-29T01:30:51.525Z,72.95
2019-05-29T01:33:20.454Z,72.11
2019-05-29T01:35:48.293Z,72.25
2019-05-29T01:38:17.247Z,72.33
2019-05-29T01:40:46.089Z,72.39
2019-05-29T01:43:15.357Z,71.94
2019-05-29T01:45:43.871Z,72.12
2019-05-29T01:48:12.750Z,71.94
2019-05-29T01:50:41.956Z,72.04
2019-05-29T01:53:10.857Z,71.90
2019-05-29T01:55:39.756Z,72.20
2019-05-29T01:58:08.707Z,72.74
2019-05-29T02:00:37.590Z,73.01
2019-05-29T02:03:06.552Z,73.08
2019-05-29T02:05:35.410Z,73.28
2019-05-29T02:08:04.313Z,72.25
2019-05-29T02:10:33.219Z,73.02
2019-05-29T02:13:02.090Z,73.22
2019-05-29T02:15:33.803Z,73.55
2019-05-29T02:17:59.891Z,73.83
2019-05-29T02:20:28.794Z,73.90
2019-05-29T02:22:57.719Z,73.16
2019-05-29T02:25:26.617Z,73.26
2019-05-29T02:27:55.518Z,72.42
2019-05-29T02:30:27.801Z,73.29
2019-05-29T02:32:53.291Z,73.37
2019-05-29T02:35:23.036Z,73.17
2019-05-29T02:37:51.105Z,73.09
2019-05-29T02:40:21.236Z,73.43
2019-05-29T02:42:48.884Z,73.71
2019-05-29T02:45:19.448Z,73.71
2019-05-29T02:47:46.782Z,73.56
2019-05-29T02:50:15.693Z,73.51
2019-05-29T02:52:44.596Z,73.34
2019-05-29T02:55:13.481Z,73.47
2019-05-29T02:57:42.353Z,73.59
2019-05-29T03:00:11.275Z,73.43
2019-05-29T03:02:40.178Z,73.42
2019-05-29T03:05:09.059Z,73.70
2019-05-29T03:07:37.964Z,73.48
2019-05-29T03:10:06.958Z,71.91
2019-05-29T03:12:35.834Z,73.00
2019-05-29T03:17:44.964Z,73.70
2019-05-29T03:20:13.880Z,73.84
2019-05-29T03:22:42.795Z,73.90
2019-05-29T03:25:11.721Z,74.16
2019-05-29T03:27:40.591Z,74.04
2019-05-29T03:30:09.567Z,74.30
2019-05-29T03:32:46.171Z,74.46
2019-05-29T03:35:07.495Z,74.66
2019-05-29T03:37:36.375Z,74.98
2019-05-29T03:40:05.787Z,74.56
2019-05-29T03:42:34.671Z,74.14
2019-05-29T03:45:03.589Z,74.11
2019-05-29T03:47:33.190Z,74.21
2019-05-29T03:50:01.344Z,74.09
2019-05-29T03:52:30.484Z,74.08
2019-05-29T03:54:59.154Z,74.33
2019-05-29T03:57:29.697Z,74.52
2019-05-29T03:59:56.916Z,74.49
2019-05-29T04:02:26.739Z,74.77
2019-05-29T04:04:54.707Z,74.66
2019-05-29T04:07:23.597Z,74.75
2019-05-29T04:09:52.487Z,74.72
2019-05-29T04:12:21.351Z,74.85
2019-05-29T04:14:50.248Z,75.22
2019-05-29T04:17:19.167Z,75.00
2019-05-29T04:19:48.057Z,74.84
2019-05-29T04:22:16.967Z,75.02
2019-05-29T04:24:45.859Z,75.09
2019-05-29T04:27:14.764Z,74.92
2019-05-29T04:29:43.850Z,73.82
2019-05-29T04:32:12.724Z,74.56
2019-05-29T04:34:41.615Z,74.60
2019-05-29T04:37:10.475Z,74.94
2019-05-29T04:39:39.370Z,75.21
2019-05-29T04:42:08.280Z,75.42
2019-05-29T04:44:38.929Z,75.94
2019-05-29T04:47:10.956Z,75.80
2019-05-29T04:49:36.178Z,76.18
2019-05-29T04:52:03.924Z,76.57
2019-05-29T04:54:33.391Z,76.55
2019-05-29T04:57:01.695Z,76.74
2019-05-29T04:59:30.832Z,77.07
2019-05-29T05:01:59.501Z,76.99
2019-05-29T05:04:29.136Z,77.07
2019-05-29T05:06:57.263Z,77.06
2019-05-29T05:09:26.187Z,76.98
2019-05-29T05:11:55.050Z,76.96
2019-05-29T05:14:23.952Z,77.23
2019-05-29T05:16:52.818Z,77.42
2019-05-29T05:19:21.727Z,77.58
2019-05-29T05:21:50.644Z,77.65
2019-05-29T05:24:19.542Z,77.81
2019-05-29T05:26:48.416Z,78.04
2019-05-29T05:29:17.301Z,78.14
2019-05-29T05:31:46.189Z,78.30
2019-05-29T05:34:15.070Z,78.21
2019-05-29T05:36:43.969Z,78.48
2019-05-29T05:39:12.873Z,78.70
2019-05-29T05:41:41.763Z,78.80
2019-05-29T05:44:10.671Z,78.73
2019-05-29T05:46:39.546Z,78.72
2019-05-29T05:49:08.576Z,78.47
2019-05-29T05:51:42.206Z,78.07
2019-05-29T05:54:06.551Z,76.87
2019-05-29T05:56:35.697Z,74.90
2019-05-29T05:59:04.418Z,75.04
2019-05-29T06:01:33.777Z,73.89
2019-05-29T06:04:02.131Z,72.79
2019-05-29T06:06:31.981Z,71.48
2019-05-29T06:08:59.950Z,69.96
2019-05-29T06:11:28.843Z,68.06
2019-05-29T06:13:57.742Z,66.26
2019-05-29T06:16:26.622Z,64.20
2019-05-29T06:18:55.555Z,63.17
2019-05-29T06:21:24.457Z,59.29
2019-05-29T06:23:53.349Z,49.85
2019-05-29T06:26:22.247Z,44.06
2019-05-29T06:28:51.153Z,39.68
2019-05-29T06:31:20.060Z,36.21
2019-05-29T06:33:48.950Z,33.45
2019-05-29T06:36:17.870Z,31.12
2019-05-29T06:38:46.741Z,29.29
2019-05-29T06:41:15.656Z,28.35
2019-05-29T06:43:44.752Z,27.03
2019-05-29T06:46:13.439Z,26.54
2019-05-29T06:48:58.044Z,26.49
2019-05-29T06:51:11.419Z,25.09
2019-05-29T06:53:40.161Z,24.92
2019-05-29T06:56:09.241Z,24.18
2019-05-29T06:58:38.153Z,24.24
2019-05-29T07:01:07.120Z,23.67
2019-05-29T07:03:37.558Z,23.46
2019-05-29T07:06:04.973Z,23.21
2019-05-29T07:08:39.946Z,23.66
2019-05-29T07:11:02.761Z,22.44
2019-05-29T07:13:35.017Z,22.26
2019-05-29T07:16:00.577Z,22.30
2019-05-29T07:18:29.472Z,22.21
2019-05-29T07:20:58.349Z,21.11
2019-05-29T07:23:27.275Z,20.44
2019-05-29T07:25:56.170Z,21.46
2019-05-29T07:28:25.069Z,22.59
2019-05-29T07:31:02.000Z,21.21
2019-05-29T07:33:22.908Z,21.21
2019-05-29T07:35:51.810Z,20.85
2019-05-29T07:38:20.706Z,20.05
2019-05-29T07:40:50.202Z,20.66
2019-05-29T07:43:18.531Z,22.45
2019-05-29T07:45:48.219Z,21.29
2019-05-29T07:48:16.326Z,20.84
2019-05-29T07:50:46.246Z,20.18
2019-05-29T07:53:14.133Z,19.94
2019-05-29T07:55:43.025Z,18.95
2019-05-29T07:58:11.924Z,19.89
2019-05-29T08:01:02.627Z,20.11
2019-05-29T08:03:09.800Z,18.45
2019-05-29T08:05:39.208Z,18.17
2019-05-29T08:08:07.735Z,18.60
2019-05-29T08:10:36.626Z,18.70
2019-05-29T08:13:05.629Z,21.05
2019-05-29T08:15:49.159Z,17.33
2019-05-29T08:18:03.502Z,18.26
2019-05-29T08:20:32.373Z,21.10
2019-05-29T08:23:01.306Z,24.11
2019-05-29T08:25:30.195Z,27.76
2019-05-29T08:27:59.082Z,28.44
2019-05-29T08:30:27.971Z,26.59
2019-05-29T08:32:56.865Z,25.96
2019-05-29T08:35:25.768Z,25.12
2019-05-29T08:37:54.672Z,24.29
2019-05-29T08:40:23.545Z,22.63
2019-05-29T08:42:52.459Z,23.43
2019-05-29T08:45:21.372Z,21.21
2019-05-29T08:47:50.287Z,19.78
2019-05-29T08:50:19.534Z,19.63
2019-05-29T08:52:48.176Z,18.62
2019-05-29T08:55:17.030Z,18.06
2019-05-29T08:57:46.349Z,18.89
2019-05-29T09:00:14.925Z,19.26
2019-05-29T09:02:44.660Z,17.71
2019-05-29T09:05:12.731Z,18.24
2019-05-29T09:07:43.220Z,21.77
2019-05-29T09:10:10.527Z,21.75
2019-05-29T09:12:39.442Z,21.68
2019-05-29T09:15:09.324Z,19.98
2019-05-29T09:17:37.426Z,20.74
2019-05-29T09:20:06.489Z,21.43
2019-05-29T09:22:35.382Z,19.84
2019-05-29T09:25:04.972Z,19.22
2019-05-29T09:27:33.853Z,17.59
2019-05-29T09:30:02.775Z,17.59
2019-05-29T09:32:48.304Z,17.54
2019-05-29T09:35:00.557Z,19.52
2019-05-29T09:37:29.460Z,18.09
2019-05-29T09:39:58.366Z,18.23
2019-05-29T09:42:27.283Z,18.68
2019-05-29T09:44:56.173Z,19.02
2019-05-29T09:47:26.382Z,17.96
2019-05-29T09:49:54.023Z,17.31
2019-05-29T09:52:22.937Z,17.52
2019-05-29T09:54:53.038Z,19.76
2019-05-29T09:57:20.752Z,20.94
2019-05-29T09:59:49.644Z,19.96
2019-05-29T10:02:18.555Z,20.08
2019-05-29T10:04:47.425Z,19.38
2019-05-29T10:07:16.304Z,21.12
2019-05-29T10:09:45.208Z,19.27
2019-05-29T10:12:14.091Z,19.25
2019-05-29T10:14:43.007Z,19.61
2019-05-29T10:17:13.129Z,20.26
2019-05-29T10:19:40.791Z,18.43
2019-05-29T10:22:09.705Z,19.13
2019-05-29T10:24:38.593Z,19.86
2019-05-29T10:27:07.567Z,18.40
2019-05-29T10:29:36.491Z,19.59
2019-05-29T10:32:05.426Z,20.71
2019-05-29T10:34:34.304Z,19.83
2019-05-29T10:37:03.242Z,18.69
2019-05-29T10:39:32.149Z,18.54
2019-05-29T10:42:01.028Z,19.43
2019-05-29T10:44:29.921Z,18.98
2019-05-29T10:46:58.791Z,18.72
2019-05-29T10:49:27.774Z,18.12
2019-05-29T10:52:13.120Z,19.59
2019-05-29T10:54:25.493Z,20.20
2019-05-29T10:56:55.028Z,21.36
2019-05-29T10:59:23.311Z,21.45
2019-05-29T11:01:53.703Z,17.29
2019-05-29T11:04:21.155Z,18.76
2019-05-29T11:06:50.285Z,20.56
2019-05-29T11:09:18.964Z,21.28
2019-05-29T11:11:48.390Z,20.23
2019-05-29T11:14:16.767Z,19.04
2019-05-29T11:16:46.914Z,20.27
2019-05-29T11:19:14.588Z,19.56
2019-05-29T11:21:43.493Z,19.80
2019-05-29T11:24:12.418Z,20.57
2019-05-29T11:26:41.292Z,23.07
2019-05-29T11:29:10.223Z,23.81
2019-05-29T11:31:39.119Z,21.64
2019-05-29T11:34:08.079Z,21.82
2019-05-29T11:36:36.971Z,22.31
2019-05-29T11:39:07.363Z,22.62
2019-05-29T11:41:36.290Z,20.39
2019-05-29T11:44:05.299Z,20.49
2019-05-29T11:46:34.735Z,23.86
2019-05-29T11:49:03.788Z,20.85
2019-05-29T11:51:32.589Z,24.07
2019-05-29T11:54:02.436Z,22.79
2019-05-29T11:56:30.421Z,23.57
2019-05-29T11:58:59.467Z,24.60
2019-05-29T12:01:28.195Z,23.81
2019-05-29T12:04:18.688Z,25.41
2019-05-29T12:06:26.022Z,26.68
2019-05-29T12:08:55.785Z,25.55
2019-05-29T12:11:23.847Z,25.49
2019-05-29T12:13:54.189Z,26.18
2019-05-29T12:16:21.664Z,28.49
2019-05-29T12:18:51.518Z,27.34
2019-05-29T12:21:19.480Z,25.98
2019-05-29T12:23:48.391Z,25.98
2019-05-29T12:26:22.752Z,27.26
2019-05-29T12:28:46.215Z,29.01
2019-05-29T12:31:15.080Z,29.33
2019-05-29T12:33:44.044Z,28.44
2019-05-29T12:36:12.902Z,29.10
2019-05-29T12:38:41.819Z,28.83
2019-05-29T12:41:10.733Z,30.13
2019-05-29T12:43:39.630Z,29.26
2019-05-29T12:46:08.730Z,28.98
2019-05-29T12:48:37.625Z,29.20
2019-05-29T12:51:06.876Z,30.06
2019-05-29T12:53:35.794Z,28.80
2019-05-29T12:56:04.830Z,28.81
2019-05-29T12:58:33.730Z,30.18
2019-05-29T13:01:03.054Z,29.61
2019-05-29T13:03:31.534Z,29.80
2019-05-29T13:06:00.493Z,29.39
2019-05-29T13:08:29.331Z,30.97
2019-05-29T13:10:58.460Z,29.89
2019-05-29T13:13:27.351Z,29.50
2019-05-29T13:15:56.707Z,29.70
2019-05-29T13:18:25.149Z,28.83
2019-05-29T13:20:54.763Z,28.40
2019-05-29T13:23:22.983Z,28.64
2019-05-29T13:25:51.870Z,29.82
2019-05-29T13:28:20.776Z,28.21
2019-05-29T13:30:49.657Z,27.25
2019-05-29T13:33:18.573Z,28.43
2019-05-29T13:35:47.445Z,28.74
2019-05-29T13:38:16.368Z,28.74
2019-05-29T13:40:45.296Z,29.50
2019-05-29T13:43:15.729Z,29.44
2019-05-29T13:45:43.080Z,29.57
2019-05-29T13:48:11.992Z,29.59
2019-05-29T13:50:40.884Z,29.22
2019-05-29T13:53:09.816Z,28.30
2019-05-29T13:55:38.700Z,29.61
2019-05-29T13:58:07.912Z,29.21
2019-05-29T14:00:36.638Z,29.12
2019-05-29T14:03:07.023Z,29.70
2019-05-29T14:05:34.649Z,29.10
2019-05-29T14:08:04.772Z,28.19
2019-05-29T14:10:32.460Z,28.14
2019-05-29T14:13:01.350Z,28.41
2019-05-29T14:15:30.250Z,28.33
2019-05-29T14:18:00.565Z,29.81
2019-05-29T14:20:28.056Z,30.04
2019-05-29T14:22:56.953Z,31.80
2019-05-29T14:25:25.882Z,30.12
2019-05-29T14:27:54.838Z,30.02
2019-05-29T14:30:23.682Z,31.17
2019-05-29T14:32:52.581Z,29.63
2019-05-29T14:35:21.491Z,31.14
2019-05-29T14:37:50.375Z,30.46
2019-05-29T14:40:19.300Z,29.71
2019-05-29T14:42:48.215Z,29.54
2019-05-29T14:45:17.129Z,29.83
2019-05-29T14:47:46.018Z,29.49
2019-05-29T14:50:14.939Z,29.86
2019-05-29T14:52:43.848Z,29.94
2019-05-29T14:55:16.121Z,29.64
2019-05-29T14:57:41.583Z,30.03
2019-05-29T15:00:20.613Z,30.95
2019-05-29T15:02:39.474Z,29.74
2019-05-29T15:05:09.600Z,28.81
2019-05-29T15:07:37.324Z,30.19
2019-05-29T15:10:13.078Z,28.40
2019-05-29T15:12:35.255Z,28.48
2019-05-29T15:15:04.749Z,28.77
2019-05-29T15:17:33.156Z,28.58
2019-05-29T15:20:02.336Z,28.50
2019-05-29T15:22:31.001Z,29.07
2019-05-29T15:25:10.628Z,29.59
2019-05-29T15:27:28.774Z,30.11
2019-05-29T15:29:57.686Z,29.11
2019-05-29T15:32:26.659Z,29.47
2019-05-29T15:34:55.528Z,29.88
2019-05-29T15:37:24.443Z,30.11
2019-05-29T15:39:53.355Z,29.67
2019-05-29T15:42:22.252Z,29.43
2019-05-29T15:44:51.126Z,30.28
2019-05-29T15:47:20.026Z,29.35
2019-05-29T15:49:48.898Z,30.32
2019-05-29T15:52:17.806Z,30.75
2019-05-29T15:54:46.726Z,29.92
2019-05-29T15:57:15.608Z,29.22
2019-05-29T15:59:45.021Z,29.48
2019-05-29T16:02:13.897Z,30.16
2019-05-29T16:04:42.779Z,29.51
2019-05-29T16:07:11.923Z,30.59
2019-05-29T16:09:40.561Z,30.73
2019-05-29T16:12:10.498Z,29.30
2019-05-29T16:14:38.471Z,30.09
2019-05-29T16:17:08.921Z,30.65
2019-05-29T16:19:36.468Z,30.79
2019-05-29T16:22:05.419Z,30.79
2019-05-29T16:24:34.337Z,30.97
2019-05-29T16:27:08.886Z,31.72
2019-05-29T16:29:32.135Z,30.82
2019-05-29T16:32:01.021Z,31.71
2019-05-29T16:34:29.915Z,32.12
2019-05-29T16:36:58.786Z,31.68
2019-05-29T16:39:27.696Z,30.95
2019-05-29T16:41:56.579Z,31.35
2019-05-29T16:44:29.318Z,31.56
2019-05-29T16:46:54.432Z,31.17
2019-05-29T16:49:23.325Z,32.26
2019-05-29T16:51:52.213Z,32.39
2019-05-29T16:54:21.138Z,32.03
2019-05-29T16:56:50.012Z,32.44
2019-05-29T16:59:19.255Z,32.56
2019-05-29T17:01:47.829Z,32.99
2019-05-29T17:04:17.681Z,32.91
2019-05-29T17:06:45.634Z,32.92
2019-05-29T17:09:14.596Z,33.09
2019-05-29T17:11:43.443Z,33.72
2019-05-29T17:14:12.323Z,34.30
2019-05-29T17:16:41.226Z,34.01
2019-05-29T17:19:10.237Z,34.04
2019-05-29T17:21:39.160Z,34.09
2019-05-29T17:24:08.068Z,34.19
2019-05-29T17:26:36.958Z,35.04
2019-05-29T17:29:05.946Z,34.49
2019-05-29T17:31:34.787Z,35.01
2019-05-29T17:34:03.721Z,35.31
2019-05-29T17:36:32.625Z,35.09
2019-05-29T17:39:01.538Z,35.63
2019-05-29T17:41:30.457Z,34.88
2019-05-29T17:43:59.338Z,35.67
2019-05-29T17:46:28.239Z,37.12
2019-05-29T17:48:57.129Z,35.21
2019-05-29T17:51:26.153Z,35.60
2019-05-29T17:53:55.143Z,35.82
2019-05-29T17:56:35.578Z,34.92
2019-05-29T17:58:52.936Z,35.65
2019-05-29T18:01:22.255Z,36.32
2019-05-29T18:03:50.748Z,36.14
2019-05-29T18:06:20.244Z,36.63
2019-05-29T18:08:48.543Z,37.48
2019-05-29T18:11:17.422Z,36.83
2019-05-29T18:13:46.322Z,37.68
2019-05-29T18:16:15.207Z,38.74
2019-05-29T18:18:44.115Z,38.38
2019-05-29T18:21:12.997Z,38.57
2019-05-29T18:23:41.923Z,38.26
2019-05-29T18:26:10.891Z,38.74
2019-05-29T18:28:39.780Z,38.73
2019-05-29T18:31:08.766Z,38.54
2019-05-29T18:33:37.664Z,38.71
2019-05-29T18:36:06.715Z,39.92
2019-05-29T18:38:35.625Z,40.45
2019-05-29T18:41:04.683Z,40.27
2019-05-29T18:43:33.517Z,39.28
2019-05-29T18:46:02.463Z,40.33
2019-05-29T18:48:32.413Z,39.96
2019-05-29T18:51:00.285Z,40.61
2019-05-29T18:53:29.200Z,40.87
2019-05-29T18:55:58.097Z,40.93
2019-05-29T18:58:28.115Z,41.04
2019-05-29T19:00:55.886Z,41.44
2019-05-29T19:03:25.394Z,42.07
2019-05-29T19:05:53.650Z,42.01
2019-05-29T19:08:23.599Z,41.71
2019-05-29T19:10:51.437Z,42.50
2019-05-29T19:13:21.684Z,42.38
2019-05-29T19:15:49.235Z,42.48
2019-05-29T19:18:18.143Z,42.56
2019-05-29T19:20:47.018Z,42.49
2019-05-29T19:23:15.948Z,42.48
2019-05-29T19:25:44.863Z,42.95
2019-05-29T19:28:13.742Z,43.60
2019-05-29T19:30:42.647Z,43.68
2019-05-29T19:33:11.577Z,44.13
2019-05-29T19:35:40.459Z,44.40
2019-05-29T19:38:09.444Z,44.29
2019-05-29T19:40:38.334Z,45.19
2019-05-29T19:43:07.495Z,45.25
2019-05-29T19:45:36.389Z,44.94
2019-05-29T19:48:05.353Z,45.10
2019-05-29T19:50:35.025Z,45.38
2019-05-29T19:53:03.160Z,46.00
2019-05-29T19:55:35.441Z,45.84
2019-05-29T19:58:00.969Z,46.29
2019-05-29T20:00:30.085Z,46.24
2019-05-29T20:02:58.756Z,46.54
2019-05-29T20:05:28.610Z,47.01
2019-05-29T20:07:56.554Z,46.98
2019-05-29T20:10:25.463Z,47.57
2019-05-29T20:12:54.395Z,47.30
2019-05-29T20:15:23.286Z,47.41
2019-05-29T20:17:52.210Z,47.00
2019-05-29T20:20:21.087Z,47.34
2019-05-29T20:22:49.992Z,48.24
2019-05-29T20:25:18.898Z,47.92
2019-05-29T20:27:47.804Z,48.08
2019-05-29T20:30:16.820Z,47.72
2019-05-29T20:32:45.787Z,47.84
2019-05-29T20:35:14.738Z,47.90
2019-05-29T20:37:43.644Z,48.52
2019-05-29T20:40:12.558Z,48.60
2019-05-29T20:42:42.538Z,48.82
2019-05-29T20:45:10.390Z,48.71
2019-05-29T20:47:39.967Z,48.74
2019-05-29T20:50:08.227Z,48.46
2019-05-29T20:52:37.396Z,49.05
2019-05-29T20:55:06.078Z,48.98
2019-05-29T20:57:35.882Z,49.31
2019-05-29T21:00:04.104Z,49.30
2019-05-29T21:02:33.972Z,48.97
2019-05-29T21:05:01.877Z,49.04
2019-05-29T21:07:30.802Z,49.33
2019-05-29T21:09:59.703Z,49.69
2019-05-29T21:12:28.640Z,49.12
2019-05-29T21:14:57.533Z,48.44
2019-05-29T21:17:26.422Z,49.52
2019-05-29T21:19:55.326Z,49.49
2019-05-29T21:22:24.234Z,49.58
2019-05-29T21:25:02.371Z,49.98
2019-05-29T21:27:22.088Z,50.29
2019-05-29T21:29:51.013Z,50.63
2019-05-29T21:32:19.930Z,50.64
2019-05-29T21:34:48.829Z,51.01
2019-05-29T21:37:17.742Z,50.84
2019-05-29T21:39:46.786Z,50.65
2019-05-29T21:42:15.581Z,50.89
2019-05-29T21:44:44.917Z,51.11
2019-05-29T21:47:13.396Z,50.13
2019-05-29T21:49:43.249Z,51.06
2019-05-29T21:52:11.330Z,52.50
2019-05-29T21:54:41.364Z,52.17
2019-05-29T21:57:09.067Z,52.54
2019-05-29T21:59:37.960Z,53.99
2019-05-29T22:02:06.912Z,53.06
2019-05-29T22:04:35.853Z,53.07
2019-05-29T22:07:04.764Z,52.54
2019-05-29T22:09:33.636Z,53.22
2019-05-29T22:12:02.532Z,53.55
2019-05-29T22:14:31.458Z,53.78
2019-05-29T22:17:01.238Z,53.64
2019-05-29T22:19:29.231Z,54.15
2019-05-29T22:21:59.164Z,53.51
2019-05-29T22:24:27.073Z,54.16
2019-05-29T22:26:57.247Z,54.72
2019-05-29T22:29:24.908Z,54.74
2019-05-29T22:31:53.824Z,55.03
2019-05-29T22:34:22.732Z,55.39
2019-05-29T22:36:51.650Z,55.30
2019-05-29T22:39:20.587Z,55.24
2019-05-29T22:41:49.519Z,55.70
2019-05-29T22:44:18.425Z,55.32
2019-05-29T22:46:47.358Z,56.08
2019-05-29T22:49:16.300Z,56.16
2019-05-29T22:51:45.223Z,56.24
2019-05-29T22:54:14.105Z,56.64
2019-05-29T22:56:43.016Z,56.36
2019-05-29T22:59:12.028Z,56.77
2019-05-29T23:01:40.942Z,56.88
2019-05-29T23:04:09.920Z,57.16
2019-05-29T23:06:38.836Z,57.43
2019-05-29T23:09:07.834Z,57.36
2019-05-29T23:11:36.726Z,57.64
2019-05-29T23:14:05.633Z,57.74
2019-05-29T23:16:34.557Z,57.46
2019-05-29T23:19:03.449Z,57.42
2019-05-29T23:21:32.379Z,57.83
2019-05-29T23:24:01.752Z,58.24
2019-05-29T23:26:30.195Z,58.40
2019-05-29T23:28:59.326Z,57.88
2019-05-29T23:31:28.038Z,57.57
2019-05-29T23:33:56.991Z,57.86
2019-05-29T23:36:25.886Z,58.41
2019-05-29T23:38:55.101Z,58.48
2019-05-29T23:41:23.686Z,59.03
2019-05-29T23:43:53.357Z,57.87
2019-05-29T23:46:21.501Z,58.55
2019-05-29T23:48:50.420Z,59.27
2019-05-29T23:51:19.353Z,58.91
2019-05-29T23:53:48.284Z,58.89
2019-05-29T23:56:17.156Z,57.82
2019-05-29T23:58:46.085Z,58.82
